createdAt,value
2017-10-28T00:01:01.818Z,3.83
2017-10-28T00:03:29.245Z,2.70
2017-10-28T00:05:58.517Z,3.13
2017-10-28T00:08:25.945Z,3.53
2017-10-28T00:10:53.388Z,4.20
2017-10-28T00:13:20.813Z,4.20
2017-10-28T00:15:49.018Z,5.37
2017-10-28T00:18:16.465Z,4.67
2017-10-28T00:20:43.885Z,3.90
2017-10-28T00:23:12.088Z,3.80
2017-10-28T00:25:39.512Z,4.40
2017-10-28T00:28:06.936Z,4.30
2017-10-28T00:30:39.987Z,3.90
2017-10-28T00:33:13.178Z,4.03
2017-10-28T00:35:47.170Z,4.30
2017-10-28T00:38:15.365Z,3.63
2017-10-28T00:40:42.789Z,4.13
2017-10-28T00:43:10.213Z,4.77
2017-10-28T00:45:37.640Z,3.97
2017-10-28T00:48:05.064Z,3.40
2017-10-28T00:50:33.261Z,4.20
2017-10-28T00:53:00.685Z,3.87
2017-10-28T00:55:28.111Z,3.60
2017-10-28T00:57:55.537Z,4.10
2017-10-28T01:00:22.972Z,4.10
2017-10-28T01:02:52.265Z,2.97
2017-10-28T01:05:20.461Z,3.07
2017-10-28T01:07:47.890Z,3.50
2017-10-28T01:10:15.321Z,3.37
2017-10-28T01:12:42.747Z,3.60
2017-10-28T01:15:10.185Z,3.40
2017-10-28T01:17:38.385Z,3.10
2017-10-28T01:20:05.820Z,4.10
2017-10-28T01:22:33.244Z,3.77
2017-10-28T01:25:00.665Z,4.20
2017-10-28T01:27:28.099Z,3.13
2017-10-28T01:29:55.521Z,2.40
2017-10-28T01:32:22.941Z,3.20
2017-10-28T01:34:50.374Z,4.23
2017-10-28T01:37:17.797Z,3.27
2017-10-28T01:39:46.005Z,3.10
2017-10-28T01:42:14.320Z,3.50
2017-10-28T01:44:41.756Z,3.83
2017-10-28T01:47:09.178Z,3.17
2017-10-28T01:49:36.608Z,3.47
2017-10-28T01:52:04.026Z,3.50
2017-10-28T01:54:31.444Z,3.23
2017-10-28T01:56:58.867Z,3.50
2017-10-28T01:59:26.300Z,3.63
2017-10-28T02:01:53.738Z,3.13
2017-10-28T02:04:21.240Z,4.10
2017-10-28T02:06:48.670Z,2.50
2017-10-28T02:09:16.089Z,2.50
2017-10-28T02:11:43.524Z,3.30
2017-10-28T02:14:11.713Z,4.50
2017-10-28T02:16:39.145Z,3.80
2017-10-28T02:19:06.566Z,3.03
2017-10-28T02:21:33.992Z,3.27
2017-10-28T02:24:01.420Z,3.40
2017-10-28T02:26:28.845Z,3.37
2017-10-28T02:28:56.277Z,3.20
2017-10-28T02:31:23.712Z,2.97
2017-10-28T02:33:51.906Z,2.53
2017-10-28T02:36:19.336Z,3.53
2017-10-28T02:38:47.529Z,2.57
2017-10-28T02:41:14.977Z,3.30
2017-10-28T02:43:43.152Z,2.97
2017-10-28T02:46:10.582Z,3.10
2017-10-28T02:48:38.005Z,3.30
2017-10-28T02:51:05.442Z,3.47
2017-10-28T02:53:32.861Z,2.70
2017-10-28T02:56:01.073Z,3.03
2017-10-28T02:58:28.498Z,3.30
2017-10-28T03:00:56.705Z,3.87
2017-10-28T03:03:24.130Z,2.30
2017-10-28T03:05:53.309Z,2.90
2017-10-28T03:08:20.741Z,2.80
2017-10-28T03:10:48.184Z,2.83
2017-10-28T03:13:16.374Z,2.97
2017-10-28T03:15:43.804Z,3.37
2017-10-28T03:18:11.227Z,3.47
2017-10-28T03:20:39.420Z,4.57
2017-10-28T03:23:06.849Z,3.67
2017-10-28T03:25:35.045Z,3.13
2017-10-28T03:28:02.468Z,3.57
2017-10-28T03:30:29.889Z,3.27
2017-10-28T03:32:57.320Z,4.03
2017-10-28T03:35:24.757Z,2.93
2017-10-28T03:37:53.942Z,3.63
2017-10-28T03:40:21.372Z,4.03
2017-10-28T03:42:48.800Z,3.80
2017-10-28T03:45:16.236Z,4.20
2017-10-28T03:47:44.425Z,3.83
2017-10-28T03:50:11.854Z,4.03
2017-10-28T03:52:40.049Z,3.97
2017-10-28T03:55:07.489Z,4.63
2017-10-28T03:57:35.677Z,4.60
2017-10-28T04:00:03.104Z,3.73
2017-10-28T04:02:31.313Z,4.53
2017-10-28T04:04:58.732Z,3.87
2017-10-28T04:07:26.168Z,4.93
2017-10-28T04:09:53.641Z,4.50
2017-10-28T04:12:21.070Z,4.60
2017-10-28T04:14:48.489Z,5.17
2017-10-28T04:17:15.913Z,5.30
2017-10-28T04:19:43.332Z,5.47
2017-10-28T04:22:10.835Z,7.50
2017-10-28T04:24:39.025Z,6.53
2017-10-28T04:27:07.227Z,7.23
2017-10-28T04:29:34.652Z,6.67
2017-10-28T04:32:02.852Z,6.37
2017-10-28T04:34:30.276Z,5.90
2017-10-28T04:36:58.478Z,6.50
2017-10-28T04:39:25.904Z,6.87
2017-10-28T04:41:54.105Z,6.43
2017-10-28T04:44:21.528Z,8.60
2017-10-28T04:46:48.968Z,7.40
2017-10-28T04:49:16.427Z,6.27
2017-10-28T04:51:43.866Z,7.00
2017-10-28T04:54:11.306Z,8.03
2017-10-28T04:56:38.737Z,6.83
2017-10-28T04:59:06.935Z,7.30
2017-10-28T05:01:34.368Z,6.87
2017-10-28T05:04:01.793Z,7.03
2017-10-28T05:06:29.228Z,6.50
2017-10-28T05:08:56.654Z,6.10
2017-10-28T05:11:24.081Z,5.60
2017-10-28T05:13:52.272Z,6.67
2017-10-28T05:16:19.696Z,6.10
2017-10-28T05:18:47.121Z,7.17
2017-10-28T05:21:14.564Z,7.07
2017-10-28T05:23:41.985Z,6.90
2017-10-28T05:26:10.188Z,6.37
2017-10-28T05:28:37.605Z,6.50
2017-10-28T05:31:05.810Z,6.30
2017-10-28T05:33:35.273Z,6.17
2017-10-28T05:36:02.695Z,5.93
2017-10-28T05:38:30.125Z,6.07
2017-10-28T05:40:57.551Z,4.83
2017-10-28T05:43:25.743Z,5.93
2017-10-28T05:45:53.176Z,6.73
2017-10-28T05:48:20.605Z,5.40
2017-10-28T05:50:48.043Z,5.63
2017-10-28T05:53:15.461Z,6.37
2017-10-28T05:55:43.652Z,5.50
2017-10-28T05:58:11.082Z,6.50
2017-10-28T06:00:38.508Z,6.13
2017-10-28T06:03:05.942Z,6.60
2017-10-28T06:05:33.392Z,7.37
2017-10-28T06:08:00.802Z,7.43
2017-10-28T06:10:28.219Z,6.77
2017-10-28T06:12:55.657Z,7.30
2017-10-28T06:15:23.081Z,7.10
2017-10-28T06:17:51.277Z,8.53
2017-10-28T06:20:18.705Z,7.47
2017-10-28T06:22:46.131Z,6.97
2017-10-28T06:25:13.598Z,6.53
2017-10-28T06:27:41.023Z,6.90
2017-10-28T06:30:08.445Z,6.83
2017-10-28T06:32:36.654Z,7.00
2017-10-28T06:35:04.080Z,6.90
2017-10-28T06:37:32.299Z,7.07
2017-10-28T06:40:00.716Z,6.50
2017-10-28T06:42:28.149Z,6.13
2017-10-28T06:44:55.566Z,6.37
2017-10-28T06:47:22.992Z,6.67
2017-10-28T06:49:51.187Z,6.90
2017-10-28T06:52:18.621Z,5.97
2017-10-28T06:54:46.049Z,5.67
2017-10-28T06:57:13.482Z,5.60
2017-10-28T06:59:40.909Z,6.40
2017-10-28T07:02:09.117Z,5.63
2017-10-28T07:04:36.533Z,5.17
2017-10-28T07:07:05.717Z,4.90
2017-10-28T07:09:33.164Z,4.43
2017-10-28T07:12:00.630Z,4.93
2017-10-28T07:14:28.061Z,5.73
2017-10-28T07:16:55.492Z,4.50
2017-10-28T07:19:22.924Z,4.33
2017-10-28T07:21:50.361Z,5.20
2017-10-28T07:24:18.552Z,5.90
2017-10-28T07:26:46.753Z,5.73
2017-10-28T07:29:14.177Z,6.03
2017-10-28T07:31:42.394Z,5.20
2017-10-28T07:34:09.812Z,5.77
2017-10-28T07:36:38.010Z,6.87
2017-10-28T07:39:05.429Z,4.83
2017-10-28T07:41:33.617Z,5.40
2017-10-28T07:44:01.811Z,5.53
2017-10-28T07:46:29.250Z,5.50
2017-10-28T07:48:57.440Z,6.37
2017-10-28T07:51:24.986Z,6.17
2017-10-28T07:53:52.485Z,7.57
2017-10-28T07:56:19.905Z,5.00
2017-10-28T07:58:47.325Z,5.00
2017-10-28T08:01:14.773Z,4.37
2017-10-28T08:03:47.740Z,4.33
2017-10-28T08:06:15.171Z,3.60
2017-10-28T08:08:42.593Z,4.00
2017-10-28T08:11:10.022Z,3.90
2017-10-28T08:13:37.451Z,3.43
2017-10-28T08:16:04.885Z,3.00
2017-10-28T08:18:32.322Z,4.03
2017-10-28T08:21:00.509Z,3.30
2017-10-28T08:23:28.715Z,3.93
2017-10-28T08:25:56.133Z,3.47
2017-10-28T08:28:24.324Z,3.70
2017-10-28T08:30:51.752Z,4.43
2017-10-28T08:33:19.962Z,3.53
2017-10-28T08:35:47.390Z,2.90
2017-10-28T08:38:15.593Z,3.47
2017-10-28T08:40:43.025Z,3.07
2017-10-28T08:43:11.220Z,3.53
2017-10-28T08:45:38.648Z,2.87
2017-10-28T08:48:06.857Z,3.63
2017-10-28T08:50:34.275Z,3.60
2017-10-28T08:53:01.709Z,3.43
2017-10-28T08:55:29.135Z,2.93
2017-10-28T08:57:56.577Z,3.10
2017-10-28T09:00:24.132Z,4.30
2017-10-28T09:02:51.577Z,2.80
2017-10-28T09:05:19.787Z,3.40
2017-10-28T09:07:47.226Z,3.73
2017-10-28T09:10:14.653Z,3.00
2017-10-28T09:12:42.862Z,2.80
2017-10-28T09:15:11.189Z,3.57
2017-10-28T09:17:38.629Z,3.23
2017-10-28T09:20:06.113Z,3.63
2017-10-28T09:22:38.540Z,2.93
2017-10-28T09:25:05.976Z,3.40
2017-10-28T09:27:33.413Z,3.80
2017-10-28T09:30:01.623Z,3.60
2017-10-28T09:32:29.045Z,4.00
2017-10-28T09:34:57.232Z,3.50
2017-10-28T09:37:24.665Z,3.33
2017-10-28T09:39:52.116Z,3.93
2017-10-28T09:42:19.556Z,4.60
2017-10-28T09:44:47.018Z,3.73
2017-10-28T09:47:15.223Z,3.23
2017-10-28T09:49:43.419Z,2.90
2017-10-28T09:52:10.858Z,3.53
2017-10-28T09:54:39.048Z,3.60
2017-10-28T09:57:06.484Z,3.00
2017-10-28T09:59:34.680Z,3.57
2017-10-28T10:02:02.118Z,4.47
2017-10-28T10:04:30.316Z,3.97
2017-10-28T10:06:57.749Z,3.50
2017-10-28T10:09:27.046Z,4.17
2017-10-28T10:11:55.241Z,3.67
2017-10-28T10:14:22.669Z,4.27
2017-10-28T10:16:50.873Z,3.80
2017-10-28T10:19:18.316Z,4.33
2017-10-28T10:21:46.522Z,4.33
2017-10-28T10:24:13.960Z,4.10
2017-10-28T10:26:41.402Z,4.53
2017-10-28T10:29:09.609Z,5.43
2017-10-28T10:31:37.044Z,4.97
2017-10-28T10:34:05.248Z,4.97
2017-10-28T10:36:32.701Z,6.03
2017-10-28T10:39:00.241Z,6.20
2017-10-28T10:41:27.771Z,4.57
2017-10-28T10:43:55.201Z,4.70
2017-10-28T10:46:22.697Z,6.00
2017-10-28T10:48:50.885Z,5.17
2017-10-28T10:51:18.316Z,6.13
2017-10-28T10:53:45.756Z,6.57
2017-10-28T10:56:13.177Z,5.13
2017-10-28T10:58:40.623Z,5.70
2017-10-28T11:01:08.140Z,5.90
2017-10-28T11:03:35.592Z,5.17
2017-10-28T11:06:03.031Z,6.00
2017-10-28T11:08:30.469Z,6.40
2017-10-28T11:10:57.901Z,5.87
2017-10-28T11:13:25.353Z,6.60
2017-10-28T11:15:54.633Z,6.27
2017-10-28T11:18:22.847Z,6.03
2017-10-28T11:20:50.279Z,5.60
2017-10-28T11:23:17.718Z,5.93
2017-10-28T11:25:45.984Z,5.00
2017-10-28T11:28:13.429Z,5.90
2017-10-28T11:30:40.868Z,6.10
2017-10-28T11:33:08.297Z,5.53
2017-10-28T11:35:35.720Z,6.50
2017-10-28T11:38:03.947Z,5.30
2017-10-28T11:40:32.381Z,5.63
2017-10-28T11:43:00.595Z,4.80
2017-10-28T11:45:28.025Z,6.00
2017-10-28T11:47:55.462Z,5.07
2017-10-28T11:50:23.653Z,5.07
2017-10-28T11:52:51.865Z,5.10
2017-10-28T11:55:19.281Z,4.63
2017-10-28T11:57:47.491Z,5.10
2017-10-28T12:00:14.938Z,5.53
2017-10-28T12:02:42.374Z,5.57
2017-10-28T12:05:10.610Z,5.10
2017-10-28T12:07:38.050Z,5.33
2017-10-28T12:10:05.494Z,5.80
2017-10-28T12:12:32.970Z,4.50
2017-10-28T12:15:00.404Z,5.20
2017-10-28T12:17:27.832Z,4.80
2017-10-28T12:19:56.029Z,4.73
2017-10-28T12:22:23.460Z,5.10
2017-10-28T12:24:51.665Z,4.47
2017-10-28T12:27:19.100Z,5.33
